ICX244 EGBB-EIKN
Flight info
| Callsign | ICX244 |
|---|---|
| Flight time | 1h 12m |
| Altitude | 20000 |
| Route | LUVUM DCT NANTI Y53 WAL L10 PENIL M144 BAGSO DCT DUB DCT OLAPO DCT CON |
| Aircraft | AT46/M-SDFGIRY/S |
Departure
| Time | 2026-04-26 02:20 |
|---|---|
| Airport | Birmingham Airport (EGBB) |
Arrival
| Time | 2026-04-26 03:33 |
|---|---|
| Airport | Ireland West Airport Knock (EIKN) |
| Time | Latitude | Longitude | Altitude | Speed | Heading |
|---|---|---|---|---|---|
| 2026-04-26 01:29 | 52.44971 | -1.73175 | 320 ft | 0 kts | 146° |
| 2026-04-26 01:58 | 52.44988 | -1.73194 | 320 ft | 4 kts | 146° |
| 2026-04-26 01:59 | 52.45005 | -1.73212 | 320 ft | 4 kts | 169° |
| 2026-04-26 01:59 | 52.45029 | -1.73205 | 318 ft | 4 kts | 207° |
| 2026-04-26 01:59 | 52.45027 | -1.73208 | 320 ft | 4 kts | 215° |
| 2026-04-26 01:59 | 52.45011 | -1.73242 | 320 ft | 4 kts | 236° |
| 2026-04-26 02:00 | 52.45008 | -1.73249 | 320 ft | 0 kts | 236° |
| 2026-04-26 02:05 | 52.45008 | -1.73250 | 320 ft | 1 kts | 236° |
| 2026-04-26 02:05 | 52.44993 | -1.73284 | 320 ft | 6 kts | 236° |
| 2026-04-26 02:06 | 52.44965 | -1.73352 | 320 ft | 8 kts | 236° |
| 2026-04-26 02:06 | 52.44933 | -1.73431 | 319 ft | 8 kts | 237° |
| 2026-04-26 02:06 | 52.44902 | -1.73507 | 319 ft | 7 kts | 237° |
| 2026-04-26 02:06 | 52.44889 | -1.73578 | 319 ft | 7 kts | 241° |
| 2026-04-26 02:07 | 52.44857 | -1.73655 | 319 ft | 9 kts | 237° |
| 2026-04-26 02:07 | 52.44802 | -1.73696 | 320 ft | 9 kts | 196° |
| 2026-04-26 02:07 | 52.44766 | -1.73701 | 320 ft | 1 kts | 204° |
| 2026-04-26 02:07 | 52.44764 | -1.73710 | 320 ft | 1 kts | 263° |
| 2026-04-26 02:08 | 52.44766 | -1.73716 | 320 ft | 0 kts | 303° |
| 2026-04-26 02:08 | 52.44769 | -1.73720 | 320 ft | 1 kts | 330° |
| 2026-04-26 02:08 | 52.44777 | -1.73719 | 320 ft | 1 kts | 18° |
| 2026-04-26 02:08 | 52.44795 | -1.73704 | 319 ft | 4 kts | 30° |
| 2026-04-26 02:09 | 52.44824 | -1.73684 | 320 ft | 5 kts | 17° |
| 2026-04-26 02:09 | 52.44859 | -1.73691 | 320 ft | 6 kts | 332° |
| 2026-04-26 02:09 | 52.44897 | -1.73734 | 320 ft | 7 kts | 325° |
| 2026-04-26 02:09 | 52.44942 | -1.73783 | 320 ft | 8 kts | 325° |
| 2026-04-26 02:10 | 52.44990 | -1.73837 | 320 ft | 9 kts | 326° |
| 2026-04-26 02:10 | 52.45041 | -1.73893 | 320 ft | 9 kts | 326° |
| 2026-04-26 02:10 | 52.45092 | -1.73949 | 320 ft | 9 kts | 326° |
| 2026-04-26 02:10 | 52.45144 | -1.74007 | 319 ft | 9 kts | 324° |
| 2026-04-26 02:11 | 52.45197 | -1.74064 | 320 ft | 9 kts | 328° |
| 2026-04-26 02:11 | 52.45249 | -1.74121 | 319 ft | 9 kts | 326° |
| 2026-04-26 02:11 | 52.45301 | -1.74181 | 319 ft | 9 kts | 325° |
| 2026-04-26 02:11 | 52.45353 | -1.74241 | 319 ft | 9 kts | 326° |
| 2026-04-26 02:12 | 52.45396 | -1.74314 | 319 ft | 9 kts | 294° |
| 2026-04-26 02:12 | 52.45425 | -1.74411 | 319 ft | 10 kts | 297° |
| 2026-04-26 02:12 | 52.45458 | -1.74513 | 318 ft | 10 kts | 298° |
| 2026-04-26 02:12 | 52.45500 | -1.74601 | 318 ft | 10 kts | 328° |
| 2026-04-26 02:13 | 52.45557 | -1.74663 | 317 ft | 11 kts | 325° |
| 2026-04-26 02:13 | 52.45625 | -1.74741 | 314 ft | 13 kts | 326° |
| 2026-04-26 02:13 | 52.45704 | -1.74827 | 309 ft | 14 kts | 326° |
| 2026-04-26 02:13 | 52.45786 | -1.74918 | 305 ft | 14 kts | 326° |
| 2026-04-26 02:14 | 52.45864 | -1.75005 | 304 ft | 13 kts | 323° |
| 2026-04-26 02:14 | 52.45936 | -1.75086 | 304 ft | 12 kts | 326° |
| 2026-04-26 02:14 | 52.46004 | -1.75161 | 304 ft | 11 kts | 326° |
| 2026-04-26 02:14 | 52.46071 | -1.75235 | 302 ft | 12 kts | 325° |
| 2026-04-26 02:15 | 52.46139 | -1.75311 | 301 ft | 12 kts | 326° |
| 2026-04-26 02:15 | 52.46210 | -1.75390 | 300 ft | 13 kts | 326° |
| 2026-04-26 02:15 | 52.46281 | -1.75468 | 302 ft | 12 kts | 326° |
| 2026-04-26 02:15 | 52.46348 | -1.75544 | 298 ft | 12 kts | 326° |
| 2026-04-26 02:16 | 52.46419 | -1.75622 | 299 ft | 12 kts | 326° |
| 2026-04-26 02:16 | 52.46485 | -1.75695 | 300 ft | 11 kts | 327° |
| 2026-04-26 02:16 | 52.46544 | -1.75761 | 302 ft | 10 kts | 325° |
| 2026-04-26 02:16 | 52.46599 | -1.75822 | 304 ft | 9 kts | 327° |
| 2026-04-26 02:17 | 52.46635 | -1.75900 | 303 ft | 9 kts | 268° |
| 2026-04-26 02:17 | 52.46619 | -1.75956 | 302 ft | 2 kts | 236° |
| 2026-04-26 02:18 | 52.46602 | -1.75998 | 303 ft | 8 kts | 236° |
| 2026-04-26 02:18 | 52.46562 | -1.76075 | 305 ft | 9 kts | 205° |
| 2026-04-26 02:19 | 52.46513 | -1.76055 | 304 ft | 6 kts | 146° |
| 2026-04-26 02:19 | 52.46511 | -1.76053 | 304 ft | 0 kts | 146° |
| 2026-04-26 02:20 | 52.46327 | -1.75847 | 306 ft | 70 kts | 146° |
| 2026-04-26 02:20 | 52.45743 | -1.75193 | 337 ft | 129 kts | 149° |
| 2026-04-26 02:20 | 52.44958 | -1.74428 | 852 ft | 137 kts | 153° |
| 2026-04-26 02:20 | 52.44115 | -1.73680 | 1478 ft | 139 kts | 156° |
| 2026-04-26 02:21 | 52.43227 | -1.72944 | 1991 ft | 146 kts | 148° |
| 2026-04-26 02:21 | 52.42428 | -1.71966 | 2645 ft | 144 kts | 142° |
| 2026-04-26 02:21 | 52.41620 | -1.70914 | 3090 ft | 155 kts | 141° |
| 2026-04-26 02:21 | 52.40812 | -1.69841 | 3823 ft | 144 kts | 143° |
| 2026-04-26 02:22 | 52.40153 | -1.68638 | 4519 ft | 144 kts | 116° |
| 2026-04-26 02:22 | 52.40044 | -1.66988 | 5162 ft | 152 kts | 80° |
| 2026-04-26 02:22 | 52.40541 | -1.65417 | 5790 ft | 157 kts | 60° |
| 2026-04-26 02:22 | 52.40865 | -1.63739 | 6578 ft | 154 kts | 76° |
| 2026-04-26 02:23 | 52.41147 | -1.62064 | 7326 ft | 153 kts | 62° |
| 2026-04-26 02:23 | 52.41987 | -1.61109 | 7973 ft | 151 kts | 11° |
| 2026-04-26 02:23 | 52.42984 | -1.60731 | 8616 ft | 153 kts | 16° |
| 2026-04-26 02:23 | 52.44060 | -1.60192 | 8961 ft | 169 kts | 16° |
| 2026-04-26 02:24 | 52.45233 | -1.59642 | 9162 ft | 182 kts | 15° |
| 2026-04-26 02:24 | 52.46510 | -1.59411 | 9466 ft | 186 kts | 356° |
| 2026-04-26 02:24 | 52.47806 | -1.59599 | 9842 ft | 188 kts | 353° |
| 2026-04-26 02:24 | 52.49108 | -1.59830 | 10288 ft | 187 kts | 352° |
| 2026-04-26 02:25 | 52.50406 | -1.60069 | 10727 ft | 189 kts | 353° |
| 2026-04-26 02:25 | 52.51769 | -1.60355 | 10869 ft | 207 kts | 343° |
| 2026-04-26 02:25 | 52.53124 | -1.61260 | 11169 ft | 212 kts | 334° |
| 2026-04-26 02:25 | 52.54460 | -1.62320 | 11588 ft | 214 kts | 333° |
| 2026-04-26 02:26 | 52.55780 | -1.63382 | 12003 ft | 215 kts | 333° |
| 2026-04-26 02:26 | 52.57140 | -1.64421 | 12278 ft | 216 kts | 334° |
| 2026-04-26 02:26 | 52.58515 | -1.65428 | 12549 ft | 216 kts | 335° |
| 2026-04-26 02:26 | 52.59893 | -1.66424 | 12812 ft | 217 kts | 335° |
| 2026-04-26 02:27 | 52.61274 | -1.67420 | 13072 ft | 217 kts | 335° |
| 2026-04-26 02:27 | 52.62659 | -1.68419 | 13328 ft | 217 kts | 334° |
| 2026-04-26 02:27 | 52.64043 | -1.69422 | 13585 ft | 217 kts | 334° |
| 2026-04-26 02:27 | 52.65431 | -1.70419 | 13817 ft | 218 kts | 335° |
| 2026-04-26 02:28 | 52.66820 | -1.71417 | 14075 ft | 218 kts | 335° |
| 2026-04-26 02:28 | 52.68214 | -1.72422 | 14312 ft | 219 kts | 334° |
| 2026-04-26 02:28 | 52.69610 | -1.73429 | 14538 ft | 219 kts | 334° |
| 2026-04-26 02:28 | 52.71009 | -1.74438 | 14760 ft | 220 kts | 334° |
| 2026-04-26 02:29 | 52.72237 | -1.75860 | 14951 ft | 216 kts | 312° |
| 2026-04-26 02:29 | 52.73215 | -1.77753 | 15128 ft | 217 kts | 308° |
| 2026-04-26 02:29 | 52.74156 | -1.79712 | 15326 ft | 218 kts | 307° |
| 2026-04-26 02:29 | 52.75101 | -1.81667 | 15532 ft | 218 kts | 308° |
| 2026-04-26 02:30 | 52.76072 | -1.83594 | 15731 ft | 219 kts | 309° |
| 2026-04-26 02:30 | 52.77063 | -1.85504 | 15913 ft | 219 kts | 309° |
| 2026-04-26 02:30 | 52.78046 | -1.87387 | 16111 ft | 219 kts | 309° |
| 2026-04-26 02:30 | 52.79040 | -1.89296 | 16293 ft | 220 kts | 309° |
| 2026-04-26 02:31 | 52.80037 | -1.91210 | 16468 ft | 220 kts | 309° |
| 2026-04-26 02:31 | 52.81037 | -1.93129 | 16647 ft | 220 kts | 309° |
| 2026-04-26 02:31 | 52.82034 | -1.95048 | 16816 ft | 220 kts | 309° |
| 2026-04-26 02:31 | 52.83034 | -1.96973 | 16979 ft | 221 kts | 309° |
| 2026-04-26 02:32 | 52.84038 | -1.98903 | 17132 ft | 222 kts | 309° |
| 2026-04-26 02:32 | 52.85043 | -2.00836 | 17298 ft | 221 kts | 309° |
| 2026-04-26 02:32 | 52.86048 | -2.02776 | 17429 ft | 223 kts | 309° |
| 2026-04-26 02:32 | 52.87058 | -2.04728 | 17569 ft | 223 kts | 309° |
| 2026-04-26 02:33 | 52.88058 | -2.06655 | 17707 ft | 224 kts | 309° |
| 2026-04-26 02:33 | 52.88649 | -2.07795 | 17800 ft | 224 kts | 309° |
| 2026-04-26 02:33 | 52.89661 | -2.09750 | 17942 ft | 224 kts | 309° |
| 2026-04-26 02:33 | 52.90673 | -2.11711 | 18073 ft | 224 kts | 309° |
| 2026-04-26 02:34 | 52.91688 | -2.13678 | 18205 ft | 225 kts | 309° |
| 2026-04-26 02:34 | 52.92706 | -2.15648 | 18325 ft | 225 kts | 309° |
| 2026-04-26 02:34 | 52.93725 | -2.17624 | 18449 ft | 226 kts | 309° |
| 2026-04-26 02:34 | 52.94745 | -2.19607 | 18565 ft | 226 kts | 309° |
| 2026-04-26 02:35 | 52.95754 | -2.21564 | 18686 ft | 226 kts | 309° |
| 2026-04-26 02:35 | 52.96775 | -2.23549 | 18804 ft | 226 kts | 309° |
| 2026-04-26 02:35 | 52.97794 | -2.25536 | 18911 ft | 227 kts | 309° |
| 2026-04-26 02:35 | 52.98819 | -2.27528 | 19013 ft | 227 kts | 309° |
| 2026-04-26 02:36 | 52.99846 | -2.29525 | 19115 ft | 228 kts | 309° |
| 2026-04-26 02:36 | 53.00871 | -2.31527 | 19215 ft | 228 kts | 309° |
| 2026-04-26 02:36 | 53.01900 | -2.33537 | 19313 ft | 228 kts | 309° |
| 2026-04-26 02:36 | 53.02930 | -2.35548 | 19409 ft | 229 kts | 309° |
| 2026-04-26 02:37 | 53.03962 | -2.37564 | 19509 ft | 229 kts | 309° |
| 2026-04-26 02:37 | 53.04994 | -2.39582 | 19609 ft | 229 kts | 308° |
| 2026-04-26 02:37 | 53.06025 | -2.41601 | 19697 ft | 229 kts | 308° |
| 2026-04-26 02:37 | 53.07056 | -2.43625 | 19781 ft | 229 kts | 308° |
| 2026-04-26 02:38 | 53.08087 | -2.45649 | 19860 ft | 230 kts | 308° |
| 2026-04-26 02:38 | 53.09124 | -2.47685 | 19926 ft | 231 kts | 308° |
| 2026-04-26 02:38 | 53.10162 | -2.49724 | 19999 ft | 231 kts | 308° |
| 2026-04-26 02:38 | 53.11202 | -2.51769 | 20112 ft | 230 kts | 308° |
| 2026-04-26 02:39 | 53.12233 | -2.53796 | 20209 ft | 230 kts | 308° |
| 2026-04-26 02:39 | 53.12916 | -2.55143 | 20243 ft | 231 kts | 308° |
| 2026-04-26 02:39 | 53.13947 | -2.57207 | 20269 ft | 233 kts | 307° |
| 2026-04-26 02:39 | 53.14962 | -2.59323 | 20282 ft | 235 kts | 306° |
| 2026-04-26 02:40 | 53.15963 | -2.61495 | 20287 ft | 237 kts | 305° |
| 2026-04-26 02:40 | 53.16965 | -2.63694 | 20299 ft | 239 kts | 306° |
| 2026-04-26 02:40 | 53.17969 | -2.65917 | 20296 ft | 241 kts | 305° |
| 2026-04-26 02:40 | 53.18978 | -2.68156 | 20302 ft | 242 kts | 305° |
| 2026-04-26 02:41 | 53.19995 | -2.70411 | 20293 ft | 247 kts | 305° |
| 2026-04-26 02:41 | 53.21032 | -2.72721 | 20294 ft | 250 kts | 305° |
| 2026-04-26 02:41 | 53.22093 | -2.75093 | 20291 ft | 260 kts | 305° |
| 2026-04-26 02:41 | 53.23183 | -2.77568 | 20292 ft | 269 kts | 305° |
| 2026-04-26 02:42 | 53.24317 | -2.80121 | 20299 ft | 277 kts | 305° |
| 2026-04-26 02:42 | 53.25487 | -2.82724 | 20291 ft | 284 kts | 305° |
| 2026-04-26 02:42 | 53.26685 | -2.85378 | 20291 ft | 288 kts | 306° |
| 2026-04-26 02:42 | 53.27879 | -2.88021 | 20298 ft | 290 kts | 305° |
| 2026-04-26 02:43 | 53.30285 | -2.93359 | 20297 ft | 288 kts | 306° |
| 2026-04-26 02:43 | 53.31490 | -2.96048 | 20290 ft | 290 kts | 305° |
| 2026-04-26 02:43 | 53.32698 | -2.98755 | 20290 ft | 291 kts | 305° |
| 2026-04-26 02:44 | 53.33910 | -3.01474 | 20295 ft | 292 kts | 305° |
| 2026-04-26 02:44 | 53.35127 | -3.04206 | 20296 ft | 293 kts | 305° |
| 2026-04-26 02:44 | 53.36343 | -3.06941 | 20290 ft | 294 kts | 305° |
| 2026-04-26 02:44 | 53.37567 | -3.09689 | 20289 ft | 294 kts | 305° |
| 2026-04-26 02:45 | 53.38789 | -3.12443 | 20289 ft | 295 kts | 305° |
| 2026-04-26 02:45 | 53.39991 | -3.15221 | 20284 ft | 295 kts | 304° |
| 2026-04-26 02:45 | 53.41183 | -3.18019 | 20286 ft | 295 kts | 304° |
| 2026-04-26 02:45 | 53.42379 | -3.20820 | 20285 ft | 295 kts | 304° |
| 2026-04-26 02:46 | 53.43573 | -3.23619 | 20285 ft | 295 kts | 304° |
| 2026-04-26 02:46 | 53.44767 | -3.26424 | 20285 ft | 295 kts | 304° |
| 2026-04-26 02:46 | 53.45962 | -3.29232 | 20285 ft | 296 kts | 304° |
| 2026-04-26 02:46 | 53.47156 | -3.32040 | 20279 ft | 296 kts | 304° |
| 2026-04-26 02:47 | 53.48350 | -3.34856 | 20279 ft | 296 kts | 303° |
| 2026-04-26 02:47 | 53.49546 | -3.37673 | 20277 ft | 296 kts | 304° |
| 2026-04-26 02:47 | 53.50739 | -3.40489 | 20274 ft | 296 kts | 303° |
| 2026-04-26 02:47 | 53.51932 | -3.43313 | 20270 ft | 296 kts | 303° |
| 2026-04-26 02:48 | 53.53127 | -3.46135 | 20268 ft | 296 kts | 303° |
| 2026-04-26 02:48 | 53.54318 | -3.48961 | 20267 ft | 296 kts | 303° |
| 2026-04-26 02:48 | 53.55511 | -3.51786 | 20265 ft | 296 kts | 303° |
| 2026-04-26 02:48 | 53.56701 | -3.54617 | 20266 ft | 296 kts | 303° |
| 2026-04-26 02:49 | 53.57893 | -3.57447 | 20261 ft | 297 kts | 303° |
| 2026-04-26 02:49 | 53.59086 | -3.60280 | 20259 ft | 297 kts | 303° |
| 2026-04-26 02:49 | 53.60276 | -3.63112 | 20258 ft | 297 kts | 303° |
| 2026-04-26 02:49 | 53.61401 | -3.66016 | 20256 ft | 295 kts | 293° |
| 2026-04-26 02:50 | 53.61870 | -3.69333 | 20257 ft | 291 kts | 275° |
| 2026-04-26 02:50 | 53.61985 | -3.72728 | 20254 ft | 291 kts | 271° |
| 2026-04-26 02:50 | 53.62041 | -3.76091 | 20249 ft | 291 kts | 271° |
| 2026-04-26 02:50 | 53.62117 | -3.79497 | 20249 ft | 291 kts | 272° |
| 2026-04-26 02:51 | 53.62248 | -3.82908 | 20249 ft | 292 kts | 274° |
| 2026-04-26 02:51 | 53.62396 | -3.86317 | 20248 ft | 292 kts | 273° |
| 2026-04-26 02:51 | 53.62535 | -3.89740 | 20251 ft | 292 kts | 273° |
| 2026-04-26 02:51 | 53.62673 | -3.93160 | 20247 ft | 293 kts | 273° |
| 2026-04-26 02:52 | 53.62804 | -3.96581 | 20243 ft | 293 kts | 273° |
| 2026-04-26 02:52 | 53.62948 | -4.00005 | 20240 ft | 293 kts | 273° |
| 2026-04-26 02:52 | 53.63084 | -4.03429 | 20239 ft | 293 kts | 273° |
| 2026-04-26 02:52 | 53.63220 | -4.06852 | 20239 ft | 293 kts | 273° |
| 2026-04-26 02:53 | 53.63349 | -4.10278 | 20238 ft | 293 kts | 272° |
| 2026-04-26 02:53 | 53.63485 | -4.13697 | 20238 ft | 293 kts | 273° |
| 2026-04-26 02:53 | 53.63617 | -4.17116 | 20233 ft | 293 kts | 273° |
| 2026-04-26 02:53 | 53.63748 | -4.20541 | 20231 ft | 293 kts | 273° |
| 2026-04-26 02:54 | 53.63876 | -4.23961 | 20230 ft | 293 kts | 273° |
| 2026-04-26 02:54 | 53.64005 | -4.27383 | 20230 ft | 293 kts | 273° |
| 2026-04-26 02:54 | 53.64131 | -4.30755 | 20230 ft | 292 kts | 273° |
| 2026-04-26 02:54 | 53.64259 | -4.34175 | 20230 ft | 292 kts | 272° |
| 2026-04-26 02:55 | 53.64383 | -4.37595 | 20227 ft | 292 kts | 272° |
| 2026-04-26 02:55 | 53.64510 | -4.41017 | 20223 ft | 293 kts | 272° |
| 2026-04-26 02:55 | 53.64633 | -4.44435 | 20222 ft | 293 kts | 272° |
| 2026-04-26 02:55 | 53.64756 | -4.47861 | 20221 ft | 293 kts | 272° |
| 2026-04-26 02:56 | 53.64877 | -4.51282 | 20221 ft | 293 kts | 272° |
| 2026-04-26 02:56 | 53.64997 | -4.54704 | 20220 ft | 292 kts | 272° |
| 2026-04-26 02:56 | 53.65119 | -4.58125 | 20220 ft | 292 kts | 272° |
| 2026-04-26 02:56 | 53.65237 | -4.61549 | 20220 ft | 292 kts | 272° |
| 2026-04-26 02:57 | 53.65356 | -4.64972 | 20220 ft | 293 kts | 272° |
| 2026-04-26 02:57 | 53.65472 | -4.68394 | 20220 ft | 293 kts | 272° |
| 2026-04-26 02:57 | 53.65588 | -4.71817 | 20220 ft | 293 kts | 272° |
| 2026-04-26 02:57 | 53.65703 | -4.75240 | 20220 ft | 293 kts | 272° |
| 2026-04-26 02:58 | 53.65816 | -4.78668 | 20220 ft | 293 kts | 272° |
| 2026-04-26 02:58 | 53.65931 | -4.82093 | 20220 ft | 293 kts | 272° |
| 2026-04-26 02:58 | 53.66043 | -4.85517 | 20220 ft | 293 kts | 272° |
| 2026-04-26 02:58 | 53.66154 | -4.88943 | 20220 ft | 293 kts | 272° |
| 2026-04-26 02:59 | 53.66264 | -4.92364 | 20220 ft | 293 kts | 272° |
| 2026-04-26 02:59 | 53.66372 | -4.95791 | 20220 ft | 292 kts | 272° |
| 2026-04-26 02:59 | 53.66479 | -4.99169 | 20220 ft | 292 kts | 272° |
| 2026-04-26 02:59 | 53.66587 | -5.02640 | 20220 ft | 292 kts | 271° |
| 2026-04-26 03:00 | 53.66689 | -5.06014 | 20221 ft | 292 kts | 271° |
| 2026-04-26 03:00 | 53.66795 | -5.09438 | 20221 ft | 292 kts | 271° |
| 2026-04-26 03:00 | 53.66898 | -5.12862 | 20220 ft | 292 kts | 271° |
| 2026-04-26 03:00 | 53.67002 | -5.16332 | 20220 ft | 292 kts | 271° |
| 2026-04-26 03:01 | 53.67102 | -5.19714 | 20220 ft | 292 kts | 271° |
| 2026-04-26 03:01 | 53.67203 | -5.23136 | 20220 ft | 292 kts | 271° |
| 2026-04-26 03:01 | 53.67305 | -5.26564 | 20220 ft | 293 kts | 271° |
| 2026-04-26 03:01 | 53.67405 | -5.29993 | 20220 ft | 293 kts | 271° |
| 2026-04-26 03:02 | 53.67502 | -5.33419 | 20220 ft | 293 kts | 271° |
| 2026-04-26 03:02 | 53.67598 | -5.36849 | 20220 ft | 293 kts | 271° |
| 2026-04-26 03:02 | 53.67696 | -5.40278 | 20220 ft | 293 kts | 271° |
| 2026-04-26 03:02 | 53.67792 | -5.43709 | 20220 ft | 293 kts | 271° |
| 2026-04-26 03:03 | 53.67885 | -5.47140 | 20220 ft | 293 kts | 271° |
| 2026-04-26 03:03 | 53.67978 | -5.50573 | 20220 ft | 293 kts | 271° |
| 2026-04-26 03:03 | 53.68071 | -5.54009 | 20220 ft | 293 kts | 271° |
| 2026-04-26 03:03 | 53.68163 | -5.57437 | 20220 ft | 293 kts | 271° |
| 2026-04-26 03:04 | 53.68255 | -5.60876 | 20220 ft | 293 kts | 271° |
| 2026-04-26 03:04 | 53.68344 | -5.64310 | 20220 ft | 293 kts | 271° |
| 2026-04-26 03:04 | 53.68432 | -5.67747 | 20220 ft | 293 kts | 271° |
| 2026-04-26 03:04 | 53.68497 | -5.71185 | 20218 ft | 292 kts | 265° |
| 2026-04-26 03:05 | 53.67908 | -5.74362 | 20220 ft | 290 kts | 237° |
| 2026-04-26 03:05 | 53.66629 | -5.77015 | 20221 ft | 287 kts | 230° |
| 2026-04-26 03:05 | 53.65393 | -5.79599 | 20221 ft | 288 kts | 234° |
| 2026-04-26 03:05 | 53.64315 | -5.82442 | 20221 ft | 288 kts | 241° |
| 2026-04-26 03:06 | 53.63413 | -5.85464 | 20221 ft | 289 kts | 244° |
| 2026-04-26 03:06 | 53.62559 | -5.88541 | 20220 ft | 290 kts | 244° |
| 2026-04-26 03:06 | 53.61698 | -5.91615 | 20215 ft | 290 kts | 244° |
| 2026-04-26 03:06 | 53.60804 | -5.94662 | 20213 ft | 290 kts | 243° |
| 2026-04-26 03:07 | 53.59899 | -5.97706 | 20212 ft | 291 kts | 243° |
| 2026-04-26 03:07 | 53.58993 | -6.00748 | 20211 ft | 291 kts | 243° |
| 2026-04-26 03:07 | 53.58083 | -6.03789 | 20211 ft | 291 kts | 243° |
| 2026-04-26 03:07 | 53.57174 | -6.06825 | 20211 ft | 291 kts | 243° |
| 2026-04-26 03:08 | 53.56263 | -6.09858 | 20211 ft | 290 kts | 243° |
| 2026-04-26 03:08 | 53.55352 | -6.12887 | 20210 ft | 290 kts | 243° |
| 2026-04-26 03:08 | 53.54440 | -6.15918 | 20213 ft | 290 kts | 243° |
| 2026-04-26 03:08 | 53.53526 | -6.18949 | 20213 ft | 290 kts | 243° |
| 2026-04-26 03:09 | 53.52614 | -6.21975 | 20211 ft | 291 kts | 243° |
| 2026-04-26 03:09 | 53.51700 | -6.25004 | 20211 ft | 291 kts | 243° |
| 2026-04-26 03:09 | 53.50805 | -6.28039 | 20209 ft | 288 kts | 247° |
| 2026-04-26 03:09 | 53.50545 | -6.31351 | 20213 ft | 292 kts | 274° |
| 2026-04-26 03:10 | 53.51003 | -6.34690 | 20212 ft | 296 kts | 287° |
| 2026-04-26 03:10 | 53.51858 | -6.37857 | 20213 ft | 299 kts | 294° |
| 2026-04-26 03:10 | 53.52841 | -6.40944 | 20211 ft | 300 kts | 295° |
| 2026-04-26 03:10 | 53.53823 | -6.44045 | 20210 ft | 300 kts | 294° |
| 2026-04-26 03:11 | 53.54753 | -6.47185 | 20210 ft | 300 kts | 293° |
| 2026-04-26 03:11 | 53.55651 | -6.50342 | 20210 ft | 299 kts | 293° |
| 2026-04-26 03:11 | 53.56559 | -6.53499 | 20211 ft | 300 kts | 293° |
| 2026-04-26 03:11 | 53.57467 | -6.56653 | 20211 ft | 299 kts | 293° |
| 2026-04-26 03:12 | 53.58373 | -6.59807 | 20211 ft | 299 kts | 293° |
| 2026-04-26 03:12 | 53.59266 | -6.62925 | 20211 ft | 299 kts | 292° |
| 2026-04-26 03:12 | 53.60170 | -6.66081 | 20212 ft | 299 kts | 292° |
| 2026-04-26 03:12 | 53.61073 | -6.69238 | 20211 ft | 299 kts | 292° |
| 2026-04-26 03:13 | 53.61976 | -6.72399 | 20211 ft | 299 kts | 292° |
| 2026-04-26 03:13 | 53.62873 | -6.75563 | 20211 ft | 299 kts | 292° |
| 2026-04-26 03:13 | 53.63766 | -6.78733 | 20211 ft | 299 kts | 292° |
| 2026-04-26 03:13 | 53.64650 | -6.81886 | 20213 ft | 299 kts | 292° |
| 2026-04-26 03:14 | 53.65543 | -6.85057 | 20214 ft | 299 kts | 292° |
| 2026-04-26 03:14 | 53.66441 | -6.88227 | 20218 ft | 299 kts | 292° |
| 2026-04-26 03:14 | 53.67280 | -6.91179 | 20218 ft | 299 kts | 292° |
| 2026-04-26 03:14 | 53.68020 | -6.93787 | 20220 ft | 299 kts | 292° |
| 2026-04-26 03:15 | 53.68918 | -6.96958 | 20219 ft | 299 kts | 292° |
| 2026-04-26 03:15 | 53.69813 | -7.00132 | 20220 ft | 300 kts | 292° |
| 2026-04-26 03:15 | 53.70707 | -7.03311 | 20223 ft | 300 kts | 292° |
| 2026-04-26 03:15 | 53.71600 | -7.06487 | 20220 ft | 300 kts | 292° |
| 2026-04-26 03:16 | 53.72494 | -7.09667 | 20218 ft | 300 kts | 292° |
| 2026-04-26 03:16 | 53.73387 | -7.12848 | 20220 ft | 299 kts | 292° |
| 2026-04-26 03:16 | 53.74278 | -7.16027 | 20223 ft | 300 kts | 292° |
| 2026-04-26 03:16 | 53.75156 | -7.19166 | 20219 ft | 300 kts | 292° |
| 2026-04-26 03:17 | 53.76047 | -7.22351 | 20218 ft | 300 kts | 292° |
| 2026-04-26 03:17 | 53.76937 | -7.25532 | 20220 ft | 298 kts | 293° |
| 2026-04-26 03:17 | 53.78010 | -7.28550 | 20219 ft | 301 kts | 300° |
| 2026-04-26 03:17 | 53.79176 | -7.31501 | 20222 ft | 301 kts | 301° |
| 2026-04-26 03:18 | 53.80438 | -7.34338 | 20220 ft | 303 kts | 306° |
| 2026-04-26 03:18 | 53.81823 | -7.37006 | 20220 ft | 298 kts | 309° |
| 2026-04-26 03:18 | 53.83214 | -7.39553 | 19976 ft | 297 kts | 309° |
| 2026-04-26 03:18 | 53.84639 | -7.42226 | 19220 ft | 312 kts | 308° |
| 2026-04-26 03:19 | 53.86067 | -7.45013 | 18784 ft | 313 kts | 308° |
| 2026-04-26 03:19 | 53.87488 | -7.47782 | 18200 ft | 310 kts | 308° |
| 2026-04-26 03:19 | 53.88896 | -7.50537 | 17619 ft | 308 kts | 308° |
| 2026-04-26 03:19 | 53.90297 | -7.53272 | 17060 ft | 306 kts | 308° |
| 2026-04-26 03:20 | 53.91684 | -7.55990 | 16529 ft | 303 kts | 308° |
| 2026-04-26 03:20 | 53.93044 | -7.58647 | 16014 ft | 301 kts | 308° |
| 2026-04-26 03:20 | 53.94103 | -7.60724 | 15615 ft | 300 kts | 308° |
| 2026-04-26 03:20 | 53.95463 | -7.63397 | 15109 ft | 298 kts | 308° |
| 2026-04-26 03:21 | 53.96811 | -7.66046 | 14622 ft | 296 kts | 308° |
| 2026-04-26 03:21 | 53.98046 | -7.68794 | 14088 ft | 289 kts | 294° |
| 2026-04-26 03:21 | 53.98822 | -7.71902 | 13551 ft | 286 kts | 289° |
| 2026-04-26 03:21 | 53.99510 | -7.75061 | 13102 ft | 284 kts | 284° |
| 2026-04-26 03:22 | 53.99970 | -7.78300 | 12657 ft | 280 kts | 277° |
| 2026-04-26 03:22 | 54.00270 | -7.81552 | 12217 ft | 277 kts | 275° |
| 2026-04-26 03:22 | 54.00541 | -7.84786 | 11788 ft | 276 kts | 275° |
| 2026-04-26 03:22 | 54.00815 | -7.88003 | 11352 ft | 275 kts | 276° |
| 2026-04-26 03:23 | 54.01121 | -7.91201 | 10924 ft | 274 kts | 276° |
| 2026-04-26 03:23 | 54.01291 | -7.94392 | 10464 ft | 269 kts | 263° |
| 2026-04-26 03:23 | 54.00996 | -7.97518 | 9997 ft | 267 kts | 256° |
| 2026-04-26 03:23 | 54.00569 | -8.00590 | 9569 ft | 267 kts | 254° |
| 2026-04-26 03:24 | 54.00139 | -8.03654 | 9158 ft | 267 kts | 255° |
| 2026-04-26 03:24 | 53.99754 | -8.06732 | 8758 ft | 266 kts | 257° |
| 2026-04-26 03:24 | 53.99402 | -8.09813 | 8381 ft | 265 kts | 257° |
| 2026-04-26 03:24 | 53.99050 | -8.12881 | 8017 ft | 264 kts | 257° |
| 2026-04-26 03:25 | 53.98696 | -8.15926 | 7668 ft | 262 kts | 257° |
| 2026-04-26 03:25 | 53.98351 | -8.18900 | 7444 ft | 247 kts | 258° |
| 2026-04-26 03:25 | 53.98041 | -8.21682 | 7104 ft | 233 kts | 258° |
| 2026-04-26 03:25 | 53.97743 | -8.24334 | 6728 ft | 226 kts | 257° |
| 2026-04-26 03:26 | 53.97445 | -8.26952 | 6271 ft | 225 kts | 258° |
| 2026-04-26 03:26 | 53.97152 | -8.29551 | 5829 ft | 223 kts | 258° |
| 2026-04-26 03:26 | 53.96859 | -8.32131 | 5385 ft | 222 kts | 258° |
| 2026-04-26 03:26 | 53.96566 | -8.34693 | 4952 ft | 221 kts | 258° |
| 2026-04-26 03:27 | 53.96265 | -8.37242 | 4514 ft | 219 kts | 258° |
| 2026-04-26 03:27 | 53.95962 | -8.39776 | 4083 ft | 219 kts | 258° |
| 2026-04-26 03:27 | 53.95665 | -8.42271 | 3768 ft | 218 kts | 258° |
| 2026-04-26 03:27 | 53.95376 | -8.44763 | 3583 ft | 208 kts | 258° |
| 2026-04-26 03:28 | 53.95112 | -8.47082 | 3430 ft | 193 kts | 258° |
| 2026-04-26 03:28 | 53.94853 | -8.49277 | 3244 ft | 188 kts | 258° |
| 2026-04-26 03:28 | 53.94587 | -8.51436 | 3153 ft | 186 kts | 258° |
| 2026-04-26 03:28 | 53.94338 | -8.53562 | 3116 ft | 182 kts | 258° |
| 2026-04-26 03:29 | 53.94092 | -8.55678 | 3100 ft | 183 kts | 258° |
| 2026-04-26 03:29 | 53.93850 | -8.57807 | 3087 ft | 183 kts | 258° |
| 2026-04-26 03:29 | 53.93607 | -8.59927 | 3074 ft | 183 kts | 258° |
| 2026-04-26 03:29 | 53.93365 | -8.62067 | 2804 ft | 183 kts | 259° |
| 2026-04-26 03:30 | 53.93117 | -8.64152 | 2572 ft | 177 kts | 258° |
| 2026-04-26 03:30 | 53.92870 | -8.66131 | 2339 ft | 167 kts | 258° |
| 2026-04-26 03:30 | 53.92646 | -8.68012 | 2122 ft | 159 kts | 258° |
| 2026-04-26 03:30 | 53.92443 | -8.69769 | 1924 ft | 145 kts | 258° |
| 2026-04-26 03:31 | 53.92263 | -8.71333 | 1742 ft | 132 kts | 258° |
| 2026-04-26 03:31 | 53.92088 | -8.72820 | 1567 ft | 125 kts | 259° |
| 2026-04-26 03:31 | 53.91918 | -8.74251 | 1408 ft | 123 kts | 259° |
| 2026-04-26 03:31 | 53.91754 | -8.75663 | 1241 ft | 121 kts | 259° |
| 2026-04-26 03:32 | 53.91593 | -8.77064 | 1080 ft | 121 kts | 259° |
| 2026-04-26 03:32 | 53.91432 | -8.78456 | 925 ft | 120 kts | 259° |
| 2026-04-26 03:32 | 53.91267 | -8.79840 | 761 ft | 120 kts | 258° |
| 2026-04-26 03:32 | 53.91099 | -8.81195 | 656 ft | 109 kts | 258° |
| 2026-04-26 03:33 | 53.90988 | -8.82171 | 640 ft | 39 kts | 259° |
| 2026-04-26 03:33 | 53.90963 | -8.82427 | 641 ft | 13 kts | 271° |
| 2026-04-26 03:33 | 53.90958 | -8.82517 | 640 ft | 4 kts | 186° |
| 2026-04-26 03:33 | 53.90953 | -8.82494 | 640 ft | 5 kts | 43° |
| 2026-04-26 03:34 | 53.90964 | -8.82478 | 640 ft | 2 kts | 66° |
| 2026-04-26 03:34 | 53.90969 | -8.82390 | 641 ft | 15 kts | 81° |
| 2026-04-26 03:34 | 53.90998 | -8.82167 | 640 ft | 23 kts | 72° |
| 2026-04-26 03:34 | 53.91034 | -8.81860 | 637 ft | 30 kts | 81° |
| 2026-04-26 03:35 | 53.91069 | -8.81513 | 637 ft | 28 kts | 78° |
| 2026-04-26 03:35 | 53.91103 | -8.81232 | 638 ft | 20 kts | 78° |
| 2026-04-26 03:35 | 53.91128 | -8.81026 | 640 ft | 18 kts | 79° |
| 2026-04-26 03:35 | 53.91155 | -8.80872 | 641 ft | 10 kts | 34° |
| 2026-04-26 03:36 | 53.91220 | -8.80878 | 640 ft | 10 kts | 346° |
| 2026-04-26 03:36 | 53.91289 | -8.80903 | 639 ft | 9 kts | 348° |
| 2026-04-26 03:36 | 53.91339 | -8.80914 | 639 ft | 4 kts | 26° |
| 2026-04-26 03:36 | 53.91376 | -8.80897 | 639 ft | 5 kts | 352° |
| 2026-04-26 03:37 | 53.91399 | -8.80907 | 639 ft | 2 kts | 327° |
| 2026-04-26 03:37 | 53.91402 | -8.80915 | 639 ft | 1 kts | 292° |
| 2026-04-26 03:37 | 53.91403 | -8.80924 | 639 ft | 1 kts | 274° |
| 2026-04-26 03:37 | 53.91403 | -8.80927 | 639 ft | 0 kts | 272° |
| 2026-04-26 03:38 | 53.91403 | -8.80928 | 639 ft | 0 kts | 272° |
| 2026-04-26 03:38 | 53.91404 | -8.80934 | 639 ft | 0 kts | 282° |
| 2026-04-26 03:38 | 53.91404 | -8.80935 | 639 ft | 0 kts | 283° |
| 2026-04-26 03:38 | 53.91405 | -8.80936 | 639 ft | 1 kts | 286° |
| 2026-04-26 03:39 | 53.91405 | -8.80938 | 639 ft | 0 kts | 289° |
| 2026-04-26 03:39 | 53.91405 | -8.80937 | 639 ft | 0 kts | 289° |